Time;durP1;ratioP1;P1;durP2;ratioP2;P2;SDS_P1;SDS_P2;PMS_P1;PMS_P2;Temp;Humidity;BMP_temperature;BMP_pressure;BME280_temperature;BME280_humidity;BME280_pressure;Samples;Min_cycle;Max_cycle;Signal;HPM_P1;HPM_P2
2023/04/22 00:02:13;;;;;;;2.90;2.70;;;13.20;99.90;;;;;;10409148;28;20199;-82
2023/04/22 00:07:16;;;;;;;3.20;2.90;;;13.20;99.90;;;;;;10422976;28;20297;-83
2023/04/22 00:12:20;;;;;;;3.57;3.20;;;13.20;99.90;;;;;;10391971;28;20554;-81
2023/04/22 00:17:23;;;;;;;2.67;2.47;;;13.10;99.90;;;;;;10424202;28;20245;-81
2023/04/22 00:22:25;;;;;;;3.27;2.97;;;13.10;99.90;;;;;;10418676;28;20458;-82
2023/04/22 00:27:32;;;;;;;7.33;3.50;;;13.10;99.90;;;;;;10434122;28;20210;-81
2023/04/22 00:32:35;;;;;;;3.27;3.07;;;13.00;99.90;;;;;;10431966;28;20212;-81
2023/04/22 00:37:37;;;;;;;3.23;3.03;;;13.00;99.90;;;;;;10393047;28;20238;-81
2023/04/22 00:42:42;;;;;;;3.70;3.40;;;13.10;99.90;;;;;;10403935;28;20201;-80
2023/04/22 00:47:45;;;;;;;4.10;3.80;;;13.00;99.90;;;;;;10387688;28;20229;-82
2023/04/22 00:52:47;;;;;;;4.63;3.03;;;12.90;99.90;;;;;;10402106;28;20225;-81
2023/04/22 00:57:53;;;;;;;4.20;3.80;;;12.90;99.90;;;;;;10402883;28;20288;-82
2023/04/22 01:02:55;;;;;;;5.77;5.33;;;12.90;99.90;;;;;;10398244;28;20198;-80
2023/04/22 01:07:57;;;;;;;7.00;4.97;;;12.90;99.90;;;;;;10403449;28;20241;-81
2023/04/22 01:13:01;;;;;;;5.50;5.00;;;12.90;99.90;;;;;;10405025;28;20190;-81
2023/04/22 01:18:03;;;;;;;5.60;5.10;;;12.80;99.90;;;;;;10389049;28;20720;-81
2023/04/22 01:23:08;;;;;;;6.47;5.97;;;12.80;99.90;;;;;;10410014;28;20199;-83
2023/04/22 01:28:12;;;;;;;7.47;6.97;;;12.80;99.90;;;;;;10407209;28;20392;-80
2023/04/22 01:33:16;;;;;;;7.47;6.97;;;12.80;99.90;;;;;;10386511;28;20677;-81
2023/04/22 01:38:18;;;;;;;7.27;6.77;;;12.80;99.90;;;;;;10418965;28;20223;-83
2023/04/22 01:43:21;;;;;;;7.67;7.07;;;12.80;99.90;;;;;;10401335;28;20240;-83
2023/04/22 01:48:24;;;;;;;7.43;6.93;;;12.80;99.90;;;;;;10421169;28;20226;-81
2023/04/22 01:53:26;;;;;;;6.63;6.23;;;12.70;99.90;;;;;;10424385;28;20655;-80
2023/04/22 01:58:30;;;;;;;7.33;6.73;;;12.80;99.90;;;;;;10405169;28;20288;-81
2023/04/22 02:03:33;;;;;;;6.80;6.30;;;12.80;99.90;;;;;;10430487;28;20198;-81
2023/04/22 02:08:35;;;;;;;6.73;6.13;;;12.70;99.90;;;;;;10401351;28;20225;-81
2023/04/22 02:13:41;;;;;;;7.03;6.53;;;12.70;99.90;;;;;;10401193;28;20194;-81
2023/04/22 02:18:43;;;;;;;7.67;7.10;;;12.70;99.90;;;;;;10421320;28;20221;-81
2023/04/22 02:23:45;;;;;;;8.87;7.80;;;12.70;99.90;;;;;;10405388;28;20264;-82
2023/04/22 02:28:49;;;;;;;8.10;7.30;;;12.70;99.90;;;;;;10405818;28;20227;-81
2023/04/22 02:33:51;;;;;;;7.83;7.30;;;12.60;99.90;;;;;;10405603;28;20194;-82
2023/04/22 02:38:53;;;;;;;8.80;8.00;;;12.60;99.90;;;;;;10417257;28;20215;-81
2023/04/22 02:43:57;;;;;;;7.50;6.90;;;12.60;99.90;;;;;;10406414;28;20642;-81
2023/04/22 02:49:02;;;;;;;7.80;7.20;;;12.60;99.90;;;;;;10403230;28;20728;-82
2023/04/22 02:54:04;;;;;;;8.30;7.60;;;12.60;99.90;;;;;;10402983;28;20210;-81
2023/04/22 02:59:08;;;;;;;8.77;7.60;;;12.60;99.90;;;;;;10422236;28;20698;-81
2023/04/22 03:04:10;;;;;;;7.40;6.90;;;12.60;99.90;;;;;;10405593;28;20602;-81
2023/04/22 03:09:13;;;;;;;8.90;7.90;;;12.60;99.90;;;;;;10403869;28;20275;-81
2023/04/22 03:14:16;;;;;;;8.10;7.50;;;12.60;99.90;;;;;;10403947;28;20215;-82
2023/04/22 03:19:18;;;;;;;8.40;7.80;;;12.60;99.90;;;;;;10400588;28;20222;-82
2023/04/22 03:24:20;;;;;;;8.63;7.93;;;12.50;99.90;;;;;;10379317;28;20199;-81
2023/04/22 03:29:27;;;;;;;8.27;7.67;;;12.40;99.90;;;;;;10397878;28;20218;-81
2023/04/22 03:34:30;;;;;;;8.83;8.13;;;12.40;99.90;;;;;;10403640;28;20679;-82
2023/04/22 03:39:32;;;;;;;8.13;7.53;;;12.40;99.90;;;;;;10415233;28;20191;-80
2023/04/22 03:44:36;;;;;;;8.47;7.83;;;12.30;99.90;;;;;;10411438;28;20199;-83
2023/04/22 03:49:38;;;;;;;8.33;7.80;;;12.30;99.90;;;;;;10390652;28;21236;-83
2023/04/22 03:54:40;;;;;;;8.60;7.90;;;12.20;99.90;;;;;;10408907;28;20211;-83
2023/04/22 03:59:45;;;;;;;11.87;8.30;;;12.20;99.90;;;;;;10392029;28;20262;-83
2023/04/22 04:04:48;;;;;;;8.90;8.13;;;12.10;99.90;;;;;;10419772;28;20248;-80
2023/04/22 04:09:51;;;;;;;9.00;8.40;;;12.10;99.90;;;;;;10406733;28;20205;-83
2023/04/22 04:14:54;;;;;;;8.17;7.57;;;12.00;99.90;;;;;;10404883;28;20293;-83
2023/04/22 04:19:57;;;;;;;8.23;7.67;;;12.10;99.90;;;;;;10404136;28;20203;-83
2023/04/22 04:25:01;;;;;;;8.00;7.20;;;12.00;99.90;;;;;;10404181;28;20225;-83
2023/04/22 04:30:11;;;;;;;9.17;8.00;;;12.00;99.90;;;;;;10404420;28;20194;-83
2023/04/22 04:35:19;;;;;;;9.13;8.43;;;11.90;99.90;;;;;;10405021;28;20250;-82
2023/04/22 04:40:28;;;;;;;8.50;7.90;;;11.90;99.90;;;;;;10405594;28;20194;-83
2023/04/22 04:45:45;;;;;;;9.13;8.43;;;11.80;99.90;;;;;;10394549;28;20430;-80
2023/04/22 04:50:52;;;;;;;8.73;8.13;;;11.80;99.90;;;;;;10418406;28;20281;-83
2023/04/22 04:55:55;;;;;;;8.77;8.00;;;11.80;99.90;;;;;;10403544;28;20225;-81
2023/04/22 05:01:01;;;;;;;9.13;8.43;;;11.80;99.90;;;;;;10408955;28;20217;-81
2023/04/22 05:06:04;;;;;;;8.57;7.97;;;11.80;99.90;;;;;;10410344;28;20245;-82
2023/04/22 05:11:06;;;;;;;8.37;7.77;;;11.80;99.90;;;;;;10416773;28;20210;-82
2023/04/22 05:16:10;;;;;;;8.13;7.53;;;11.80;99.90;;;;;;10424084;28;20222;-82
2023/04/22 05:21:12;;;;;;;7.70;6.90;;;12.00;99.90;;;;;;10410168;28;20518;-81
2023/04/22 05:26:16;;;;;;;9.00;8.27;;;12.00;99.90;;;;;;10406021;28;20257;-82
2023/04/22 05:31:22;;;;;;;8.03;7.33;;;12.00;99.90;;;;;;10401359;28;20207;-83
2023/04/22 05:36:26;;;;;;;8.73;8.03;;;12.20;99.90;;;;;;10401381;28;20218;-82
2023/04/22 05:41:28;;;;;;;10.63;9.73;;;12.20;99.90;;;;;;10401061;28;20190;-82
2023/04/22 05:46:34;;;;;;;14.67;13.30;;;12.30;99.90;;;;;;10400779;28;20222;-83
2023/04/22 05:51:36;;;;;;;7.67;7.17;;;12.40;99.90;;;;;;10403422;28;20256;-81
2023/04/22 05:56:39;;;;;;;9.73;8.93;;;12.40;99.90;;;;;;10401612;28;20592;-81
2023/04/22 06:01:43;;;;;;;11.97;10.97;;;12.40;99.90;;;;;;10401639;28;20218;-80
2023/04/22 06:06:47;;;;;;;9.03;8.33;;;12.50;99.90;;;;;;10399927;28;20218;-82
2023/04/22 06:11:49;;;;;;;9.37;8.47;;;12.70;99.90;;;;;;10418708;28;20551;-80
2023/04/22 06:16:52;;;;;;;9.27;8.37;;;12.80;99.90;;;;;;10382787;28;20319;-81
2023/04/22 06:21:55;;;;;;;7.90;7.40;;;12.90;99.90;;;;;;10398138;28;20225;-81
2023/04/22 06:26:58;;;;;;;8.23;7.73;;;13.10;99.90;;;;;;10370086;28;20288;-80
2023/04/22 06:32:05;;;;;;;9.50;7.63;;;13.30;99.90;;;;;;10385417;28;20674;-81
2023/04/22 06:37:07;;;;;;;7.73;7.10;;;13.50;99.90;;;;;;10402422;28;20210;-81
2023/04/22 06:42:10;;;;;;;8.73;8.03;;;13.70;99.90;;;;;;10401833;28;20227;-80
2023/04/22 06:47:23;;;;;;;7.97;7.37;;;13.90;99.90;;;;;;10409874;28;20241;-80
2023/04/22 06:52:35;;;;;;;8.00;7.40;;;14.00;99.90;;;;;;10416500;28;20253;-80
2023/04/22 06:57:38;;;;;;;7.97;7.30;;;14.10;99.90;;;;;;10390657;28;20630;-82
2023/04/22 07:02:41;;;;;;;8.33;7.53;;;14.30;99.90;;;;;;10399833;28;20198;-83
2023/04/22 07:07:44;;;;;;;8.80;7.97;;;14.40;99.90;;;;;;10407204;28;20713;-81
2023/04/22 07:12:52;;;;;;;10.20;9.40;;;14.50;99.90;;;;;;10391867;28;20235;-83
2023/04/22 07:17:56;;;;;;;10.60;9.60;;;14.60;99.90;;;;;;10391395;28;20226;-82
2023/04/22 07:22:58;;;;;;;10.67;9.83;;;14.70;99.90;;;;;;10426696;28;20199;-83
2023/04/22 07:28:00;;;;;;;10.67;9.80;;;14.80;99.90;;;;;;10392807;28;20761;-83
2023/04/22 07:33:03;;;;;;;9.70;8.90;;;15.00;99.90;;;;;;10422466;28;20206;-82
2023/04/22 07:38:05;;;;;;;9.47;8.67;;;15.00;99.90;;;;;;10403565;28;20229;-83
2023/04/22 07:43:07;;;;;;;7.90;7.40;;;15.20;99.90;;;;;;10405237;28;20229;-83
2023/04/22 07:48:11;;;;;;;8.37;7.77;;;15.30;99.90;;;;;;10423662;28;20297;-82
2023/04/22 07:53:14;;;;;;;8.33;7.73;;;15.50;99.90;;;;;;10406678;28;20292;-81
2023/04/22 07:58:16;;;;;;;6.70;6.17;;;15.60;99.90;;;;;;10409860;28;20610;-83
2023/04/22 08:03:20;;;;;;;6.53;5.90;;;15.80;99.90;;;;;;10426078;28;20702;-83
2023/04/22 08:08:22;;;;;;;5.50;5.00;;;16.00;99.90;;;;;;10431757;28;20218;-82
2023/04/22 08:13:25;;;;;;;4.37;4.07;;;16.20;99.90;;;;;;10432924;28;20210;-82
2023/04/22 08:18:28;;;;;;;4.70;4.40;;;16.40;99.90;;;;;;10430757;28;20679;-82
2023/04/22 08:23:31;;;;;;;4.10;3.80;;;16.50;99.90;;;;;;10400506;28;20226;-82
2023/04/22 08:28:33;;;;;;;4.23;3.87;;;16.70;99.90;;;;;;10447712;28;20241;-81
2023/04/22 08:33:36;;;;;;;4.33;3.70;;;16.80;99.90;;;;;;10413607;28;20214;-82
2023/04/22 08:38:38;;;;;;;3.73;3.43;;;16.90;99.90;;;;;;10412254;28;20218;-83
2023/04/22 08:43:41;;;;;;;3.30;3.10;;;17.20;99.90;;;;;;10428530;28;20239;-82
2023/04/22 08:48:46;;;;;;;3.50;3.30;;;17.50;99.20;;;;;;10413052;28;20211;-82
2023/04/22 08:53:48;;;;;;;3.10;2.90;;;17.80;99.90;;;;;;10411250;28;20210;-83
2023/04/22 08:58:53;;;;;;;3.43;3.13;;;17.90;99.90;;;;;;10405539;28;20314;-82
2023/04/22 09:03:58;;;;;;;3.03;2.83;;;18.00;99.90;;;;;;10435564;28;20226;-81
2023/04/22 09:09:01;;;;;;;4.60;4.30;;;18.10;99.90;;;;;;10407031;28;20268;-84
2023/04/22 09:14:04;;;;;;;2.83;2.70;;;18.30;99.90;;;;;;10424776;28;20294;-83
2023/04/22 09:19:14;;;;;;;3.50;3.30;;;18.50;99.80;;;;;;10419406;28;20230;-83
2023/04/22 09:24:16;;;;;;;3.20;3.00;;;18.70;99.40;;;;;;10400839;28;20202;-82
2023/04/22 09:29:21;;;;;;;2.80;2.67;;;18.90;99.10;;;;;;10397800;28;20215;-83
2023/04/22 09:34:28;;;;;;;2.67;2.57;;;19.10;99.30;;;;;;10388075;28;20204;-83
2023/04/22 09:39:33;;;;;;;2.87;2.70;;;19.30;99.20;;;;;;10401172;28;20725;-83
2023/04/22 09:44:42;;;;;;;3.07;2.73;;;19.60;99.00;;;;;;10412885;28;20195;-82
2023/04/22 09:49:50;;;;;;;2.70;2.60;;;19.90;94.60;;;;;;10397289;28;20201;-82
2023/04/22 09:54:53;;;;;;;2.90;2.70;;;20.20;93.40;;;;;;10398870;28;20270;-83
2023/04/22 09:59:59;;;;;;;3.20;3.00;;;20.30;94.60;;;;;;10388152;28;20222;-82
2023/04/22 10:05:03;;;;;;;2.33;2.23;;;20.50;93.10;;;;;;10428038;28;20222;-82
2023/04/22 10:10:09;;;;;;;2.67;2.53;;;20.60;94.90;;;;;;10415417;28;20198;-82
2023/04/22 10:15:11;;;;;;;2.87;2.67;;;20.70;94.70;;;;;;10415619;28;20602;-83
2023/04/22 10:20:18;;;;;;;2.83;2.70;;;20.60;93.60;;;;;;10416823;28;20198;-82
2023/04/22 10:25:24;;;;;;;3.10;2.90;;;20.40;94.00;;;;;;10416548;28;20225;-81
2023/04/22 10:30:28;;;;;;;2.73;2.53;;;20.20;93.60;;;;;;10420279;28;20198;-83
2023/04/22 10:35:32;;;;;;;2.90;2.63;;;20.00;91.20;;;;;;10383890;28;20318;-83
2023/04/22 10:40:34;;;;;;;3.93;2.40;;;20.00;89.10;;;;;;10389992;28;20194;-82
2023/04/22 10:45:37;;;;;;;2.70;2.50;;;19.90;87.90;;;;;;10409982;28;20260;-83
2023/04/22 10:50:40;;;;;;;5.07;2.53;;;20.00;85.20;;;;;;10428437;28;20268;-82
2023/04/22 10:55:51;;;;;;;3.00;2.80;;;19.90;88.60;;;;;;10423492;28;20220;-82
2023/04/22 11:00:58;;;;;;;2.70;2.50;;;19.70;88.00;;;;;;10418644;28;20617;-83
2023/04/22 11:06:15;;;;;;;5.57;2.77;;;19.70;83.10;;;;;;10421158;28;20320;-82
2023/04/22 11:11:18;;;;;;;6.80;6.10;;;19.70;81.90;;;;;;10430206;28;20194;-83
2023/04/22 11:16:22;;;;;;;2.90;2.80;;;19.60;86.90;;;;;;10434390;28;20233;-82
2023/04/22 11:21:26;;;;;;;2.63;2.43;;;19.50;85.00;;;;;;10421839;28;20186;-84
2023/04/22 11:26:36;;;;;;;2.50;2.40;;;19.60;87.00;;;;;;10438552;28;20222;-82
2023/04/22 11:31:38;;;;;;;2.60;2.40;;;19.60;87.00;;;;;;10438890;28;20202;-82
2023/04/22 11:36:45;;;;;;;2.83;2.60;;;19.70;79.00;;;;;;10447003;28;20230;-82
2023/04/22 11:41:47;;;;;;;4.53;3.70;;;19.70;84.90;;;;;;10435199;28;20198;-81
2023/04/22 11:46:49;;;;;;;2.57;2.37;;;19.70;87.20;;;;;;10438140;28;20222;-81
2023/04/22 11:51:55;;;;;;;2.70;2.50;;;19.70;85.30;;;;;;10433873;28;20206;-81
2023/04/22 11:56:57;;;;;;;4.60;3.00;;;19.80;81.40;;;;;;10429700;28;20234;-82
2023/04/22 12:01:59;;;;;;;3.40;3.03;;;19.90;77.60;;;;;;10412486;28;20203;-82
2023/04/22 12:07:03;;;;;;;3.00;2.80;;;20.20;79.50;;;;;;10410874;28;20280;-81
2023/04/22 12:12:06;;;;;;;4.90;2.50;;;20.50;81.50;;;;;;10414183;28;20203;-84
2023/04/22 12:17:10;;;;;;;2.80;2.60;;;20.60;82.00;;;;;;10428942;28;20285;-84
2023/04/22 12:22:24;;;;;;;2.57;2.47;;;20.70;82.20;;;;;;10429900;28;20201;-82
2023/04/22 12:27:26;;;;;;;2.87;2.77;;;20.70;80.30;;;;;;10395626;28;20215;-80
2023/04/22 12:32:28;;;;;;;2.67;2.57;;;20.70;83.20;;;;;;10429110;28;20679;-81
2023/04/22 12:37:32;;;;;;;3.67;2.87;;;20.70;84.30;;;;;;10385276;28;20245;-80
2023/04/22 12:42:34;;;;;;;3.23;2.90;;;20.70;84.00;;;;;;10422688;28;20609;-82
2023/04/22 12:47:36;;;;;;;3.47;2.67;;;20.70;79.50;;;;;;10418471;28;20229;-82
2023/04/22 12:52:40;;;;;;;2.67;2.47;;;20.80;81.70;;;;;;10412375;28;20229;-80
2023/04/22 12:57:42;;;;;;;2.83;2.73;;;20.80;79.20;;;;;;10416630;28;20265;-80
2023/04/22 13:02:46;;;;;;;3.87;2.43;;;20.90;79.10;;;;;;10431240;28;20202;-81
2023/04/22 13:07:53;;;;;;;3.53;3.00;;;20.90;81.20;;;;;;10421000;28;20711;-81
2023/04/22 13:12:56;;;;;;;2.27;2.10;;;20.90;79.10;;;;;;10393722;28;20253;-81
2023/04/22 13:17:58;;;;;;;3.60;3.30;;;20.90;81.50;;;;;;10437511;28;20234;-82
2023/04/22 13:23:03;;;;;;;2.90;2.37;;;20.80;83.30;;;;;;10430064;28;20190;-81
2023/04/22 13:28:05;;;;;;;3.13;2.83;;;20.70;82.10;;;;;;10420788;28;20283;-81
2023/04/22 13:33:07;;;;;;;2.57;2.47;;;20.50;83.80;;;;;;10423263;28;20202;-80
2023/04/22 13:38:12;;;;;;;3.23;2.90;;;20.40;85.40;;;;;;10407434;28;20248;-81
2023/04/22 13:43:15;;;;;;;2.90;2.70;;;20.30;83.60;;;;;;10412035;28;20290;-81
2023/04/22 13:48:17;;;;;;;2.90;2.70;;;20.30;80.20;;;;;;10416859;28;20218;-81
2023/04/22 13:53:20;;;;;;;2.73;2.53;;;20.30;83.70;;;;;;10399898;28;20303;-81
2023/04/22 13:58:22;;;;;;;2.73;2.53;;;20.40;82.60;;;;;;10422085;28;20231;-81
2023/04/22 14:03:24;;;;;;;2.93;2.73;;;20.50;86.40;;;;;;10428868;28;20199;-81
2023/04/22 14:08:28;;;;;;;3.20;2.90;;;20.40;85.10;;;;;;10398386;28;20280;-81
2023/04/22 14:13:31;;;;;;;3.50;2.77;;;20.40;85.70;;;;;;10399492;28;20249;-81
2023/04/22 14:18:35;;;;;;;2.70;2.60;;;20.30;85.30;;;;;;10414778;28;20278;-81
2023/04/22 14:23:39;;;;;;;3.20;2.90;;;20.20;84.40;;;;;;10381393;28;20623;-80
2023/04/22 14:28:42;;;;;;;2.70;2.40;;;20.10;82.50;;;;;;10420735;28;20238;-81
2023/04/22 14:33:44;;;;;;;4.20;2.90;;;20.10;83.90;;;;;;10424537;28;20284;-81
2023/04/22 14:38:47;;;;;;;2.70;2.50;;;20.10;85.70;;;;;;10433674;28;20233;-81
2023/04/22 14:43:50;;;;;;;3.73;3.10;;;20.10;84.40;;;;;;10425680;28;20213;-80
2023/04/22 14:48:52;;;;;;;3.27;2.97;;;20.00;87.50;;;;;;10424717;28;20218;-80
2023/04/22 14:53:55;;;;;;;3.13;2.90;;;19.80;82.40;;;;;;10406986;28;20210;-82
2023/04/22 14:58:57;;;;;;;5.43;4.93;;;19.70;83.80;;;;;;10396831;28;20218;-81
2023/04/22 15:03:59;;;;;;;3.10;2.90;;;19.70;85.70;;;;;;10398167;28;20191;-81
2023/04/22 15:09:03;;;;;;;3.70;3.10;;;19.70;86.60;;;;;;10392384;28;20250;-80
2023/04/22 15:14:05;;;;;;;3.23;2.93;;;19.80;88.20;;;;;;10391607;28;20285;-81
2023/04/22 15:19:07;;;;;;;3.23;2.93;;;19.80;84.40;;;;;;10403633;28;20230;-80
2023/04/22 15:24:11;;;;;;;3.17;2.97;;;19.70;86.70;;;;;;10432990;28;20206;-81
2023/04/22 15:29:13;;;;;;;2.53;2.33;;;19.70;83.50;;;;;;10408027;28;20218;-80
2023/04/22 15:34:15;;;;;;;4.50;2.53;;;19.70;82.00;;;;;;10422884;28;20224;-81
2023/04/22 15:39:19;;;;;;;2.83;2.63;;;19.70;84.50;;;;;;10421857;28;20268;-81
2023/04/22 15:44:22;;;;;;;3.80;3.50;;;19.70;81.90;;;;;;10421595;28;20203;-81
2023/04/22 15:49:24;;;;;;;3.13;2.93;;;19.70;83.80;;;;;;10421839;28;20264;-81
2023/04/22 15:54:27;;;;;;;3.10;2.90;;;19.60;83.50;;;;;;10422226;28;20286;-81
2023/04/22 15:59:30;;;;;;;4.50;3.10;;;19.50;88.50;;;;;;10403485;28;20207;-81
2023/04/22 16:04:32;;;;;;;2.50;2.40;;;19.40;88.10;;;;;;10388059;28;20194;-81
2023/04/22 16:09:35;;;;;;;3.10;2.90;;;19.40;85.00;;;;;;10427802;28;20224;-80
2023/04/22 16:14:37;;;;;;;3.42;3.13;;;19.40;84.40;;;;;;10400000;28;1108967;-81
2023/04/22 16:19:39;;;;;;;2.97;2.77;;;19.40;85.20;;;;;;10409688;28;20225;-81
2023/04/22 16:24:42;;;;;;;2.87;2.67;;;19.30;87.20;;;;;;10423799;28;20195;-82
2023/04/22 16:29:45;;;;;;;3.20;3.00;;;19.30;83.00;;;;;;10383606;28;20647;-81
2023/04/22 16:34:47;;;;;;;3.33;3.00;;;19.20;85.70;;;;;;10417019;28;20194;-81
2023/04/22 16:39:50;;;;;;;3.60;2.90;;;19.20;87.40;;;;;;10399465;28;20219;-81
2023/04/22 16:44:53;;;;;;;4.30;3.27;;;19.10;85.00;;;;;;10402080;28;20686;-81
2023/04/22 16:49:55;;;;;;;2.97;2.77;;;19.10;87.10;;;;;;10384735;28;20253;-81
2023/04/22 16:54:59;;;;;;;3.27;2.77;;;19.00;85.20;;;;;;10420076;28;20694;-81
2023/04/22 17:00:01;;;;;;;2.83;2.63;;;18.90;85.20;;;;;;10418751;28;20254;-81
2023/04/22 17:05:03;;;;;;;5.67;2.73;;;19.00;82.00;;;;;;10400343;28;20292;-80
2023/04/22 17:10:08;;;;;;;7.20;2.60;;;19.00;82.60;;;;;;10400425;28;20190;-80
2023/04/22 17:15:10;;;;;;;8.23;3.20;;;19.00;85.40;;;;;;10418127;28;20227;-80
2023/04/22 17:20:12;;;;;;;2.90;2.70;;;18.90;83.90;;;;;;10419281;28;20214;-80
2023/04/22 17:25:16;;;;;;;3.20;2.83;;;18.80;82.90;;;;;;10401831;28;20218;-80
2023/04/22 17:30:18;;;;;;;3.20;3.00;;;18.80;83.40;;;;;;10414238;28;20190;-80
2023/04/22 17:35:20;;;;;;;3.40;3.20;;;18.70;86.60;;;;;;10418876;28;20241;-81
2023/04/22 17:40:24;;;;;;;3.93;3.60;;;18.60;84.00;;;;;;10418899;28;20558;-80
2023/04/22 17:45:26;;;;;;;3.03;2.73;;;18.50;86.70;;;;;;10427527;28;20308;-80
2023/04/22 17:50:28;;;;;;;3.57;3.27;;;18.50;84.40;;;;;;10420420;28;20187;-81
2023/04/22 17:55:33;;;;;;;2.67;2.47;;;18.40;88.70;;;;;;10417814;28;20292;-80
2023/04/22 18:00:37;;;;;;;5.53;5.00;;;18.30;90.00;;;;;;10401096;28;20265;-80
2023/04/22 18:05:42;;;;;;;3.47;3.17;;;18.20;90.30;;;;;;10401003;28;20217;-80
2023/04/22 18:10:45;;;;;;;3.10;2.80;;;18.10;90.10;;;;;;10418007;28;20222;-80
2023/04/22 18:15:47;;;;;;;4.60;3.33;;;18.10;88.60;;;;;;10417701;28;20630;-80
2023/04/22 18:20:49;;;;;;;3.40;3.10;;;18.10;89.30;;;;;;10380601;28;20683;-81
2023/04/22 18:25:54;;;;;;;3.60;3.40;;;18.00;90.30;;;;;;10412299;28;20237;-81
2023/04/22 18:30:56;;;;;;;4.30;3.90;;;18.10;90.20;;;;;;10416274;28;20219;-80
2023/04/22 18:35:59;;;;;;;4.23;3.80;;;18.00;90.80;;;;;;10404720;28;20285;-81
2023/04/22 18:41:05;;;;;;;3.20;2.90;;;18.00;92.00;;;;;;10416121;28;20471;-80
2023/04/22 18:46:08;;;;;;;3.63;3.33;;;17.90;92.50;;;;;;10397157;28;20213;-80
2023/04/22 18:51:11;;;;;;;4.33;3.23;;;17.80;92.20;;;;;;10413684;28;20277;-80
2023/04/22 18:56:14;;;;;;;4.90;4.07;;;17.70;93.30;;;;;;10396080;28;20234;-80
2023/04/22 19:01:16;;;;;;;3.90;3.40;;;17.60;93.50;;;;;;10400327;28;20244;-80
2023/04/22 19:06:18;;;;;;;5.23;3.27;;;17.60;93.40;;;;;;10420113;28;20831;-80
2023/04/22 19:11:22;;;;;;;3.70;3.50;;;17.50;94.40;;;;;;10421048;28;20205;-80
2023/04/22 19:16:24;;;;;;;3.70;3.40;;;17.30;95.10;;;;;;10432321;28;20541;-81
2023/04/22 19:21:28;;;;;;;3.73;3.47;;;17.20;94.50;;;;;;10437523;28;20717;-80
2023/04/22 19:26:32;;;;;;;3.17;2.97;;;17.20;94.40;;;;;;10423046;28;20218;-80
2023/04/22 19:31:34;;;;;;;3.30;3.10;;;17.10;94.70;;;;;;10430135;28;20273;-80
2023/04/22 19:36:36;;;;;;;4.20;3.50;;;17.00;95.90;;;;;;10401186;28;20591;-80
2023/04/22 19:41:39;;;;;;;4.10;3.67;;;16.80;95.80;;;;;;10405260;28;20242;-80
2023/04/22 19:46:42;;;;;;;3.80;3.40;;;16.80;96.40;;;;;;10391006;28;20219;-80
2023/04/22 19:51:45;;;;;;;3.73;3.50;;;16.80;95.60;;;;;;10423422;28;20562;-81
2023/04/22 19:56:49;;;;;;;4.00;3.70;;;16.70;95.00;;;;;;10406571;28;20237;-80
2023/04/22 20:01:52;;;;;;;4.60;4.13;;;16.70;96.00;;;;;;10406133;28;20214;-79
2023/04/22 20:06:55;;;;;;;4.90;4.17;;;16.70;95.30;;;;;;10425041;28;20694;-80
2023/04/22 20:12:00;;;;;;;5.63;4.17;;;16.70;95.30;;;;;;10391173;28;20229;-80
2023/04/22 20:17:02;;;;;;;3.40;3.10;;;16.60;95.80;;;;;;10390170;28;20250;-80
2023/04/22 20:22:06;;;;;;;3.87;3.63;;;16.60;95.20;;;;;;10426756;28;20592;-80
2023/04/22 20:27:09;;;;;;;3.43;3.23;;;16.60;94.90;;;;;;10425918;28;20246;-80
2023/04/22 20:32:12;;;;;;;4.07;3.77;;;16.60;95.10;;;;;;10426438;28;20277;-80
2023/04/22 20:37:17;;;;;;;9.73;3.77;;;16.50;94.90;;;;;;10427562;28;20234;-81
2023/04/22 20:42:24;;;;;;;3.40;3.20;;;16.50;94.90;;;;;;10423589;28;20194;-80
2023/04/22 20:47:29;;;;;;;3.60;3.30;;;16.50;94.80;;;;;;10423977;28;20215;-80
2023/04/22 20:52:31;;;;;;;3.73;2.93;;;16.50;94.30;;;;;;10405893;28;20303;-80
2023/04/22 20:57:35;;;;;;;3.77;3.47;;;16.50;94.50;;;;;;10438404;28;20225;-81
2023/04/22 21:02:38;;;;;;;5.67;5.17;;;16.50;94.00;;;;;;10387719;28;20662;-81
2023/04/22 21:07:40;;;;;;;3.60;3.40;;;16.40;94.50;;;;;;10402016;28;20597;-81
2023/04/22 21:12:44;;;;;;;3.73;3.47;;;16.40;94.50;;;;;;10396467;28;20202;-81
2023/04/22 21:17:55;;;;;;;4.60;4.20;;;16.40;94.80;;;;;;10415127;28;20608;-81
2023/04/22 21:22:58;;;;;;;4.53;3.50;;;16.30;95.00;;;;;;10401069;28;20198;-81
2023/04/22 21:28:02;;;;;;;4.17;3.87;;;16.30;95.10;;;;;;10421706;28;20213;-81
2023/04/22 21:33:07;;;;;;;4.00;3.70;;;16.20;95.30;;;;;;10404697;28;20277;-81
2023/04/22 21:38:09;;;;;;;4.93;4.43;;;16.20;95.70;;;;;;10406894;28;20715;-81
2023/04/22 21:43:13;;;;;;;4.70;3.93;;;16.20;95.70;;;;;;10424758;28;20564;-81
2023/04/22 21:48:15;;;;;;;4.10;3.80;;;16.10;95.80;;;;;;10401831;28;20206;-82
2023/04/22 21:53:18;;;;;;;3.70;3.40;;;16.10;96.20;;;;;;10400660;28;20294;-81
2023/04/22 21:58:21;;;;;;;4.50;4.10;;;16.10;96.50;;;;;;10418262;28;20214;-81
2023/04/22 22:03:23;;;;;;;5.03;4.33;;;16.00;96.40;;;;;;10384119;28;20599;-81
2023/04/22 22:08:26;;;;;;;4.60;4.20;;;15.90;96.70;;;;;;10418457;28;20218;-81
2023/04/22 22:13:29;;;;;;;5.00;4.20;;;15.90;97.00;;;;;;10384520;28;20198;-81
2023/04/22 22:18:32;;;;;;;4.83;4.53;;;15.80;96.20;;;;;;10402671;28;20242;-81
2023/04/22 22:23:34;;;;;;;4.40;4.10;;;15.80;96.10;;;;;;10410970;28;20218;-82
2023/04/22 22:28:39;;;;;;;4.67;4.37;;;15.80;96.10;;;;;;10404114;28;20206;-81
2023/04/22 22:33:42;;;;;;;4.00;3.77;;;15.80;95.80;;;;;;10414601;28;20210;-82
2023/04/22 22:38:44;;;;;;;4.40;4.07;;;15.80;96.60;;;;;;10397810;28;20222;-80
2023/04/22 22:43:47;;;;;;;4.80;4.40;;;15.80;95.90;;;;;;10409407;28;20198;-83
2023/04/22 22:48:52;;;;;;;4.17;3.87;;;15.80;96.10;;;;;;10402810;28;20214;-81
2023/04/22 22:53:57;;;;;;;4.60;4.23;;;15.80;96.10;;;;;;10422695;28;20214;-81
2023/04/22 22:59:00;;;;;;;4.77;4.30;;;15.80;96.00;;;;;;10424948;28;20241;-81
2023/04/22 23:04:02;;;;;;;4.50;4.10;;;15.80;96.20;;;;;;10423160;28;20206;-81
2023/04/22 23:09:04;;;;;;;4.20;3.80;;;15.80;96.80;;;;;;10415821;28;20219;-81
2023/04/22 23:14:08;;;;;;;3.90;3.70;;;15.70;96.00;;;;;;10416653;28;20206;-81
2023/04/22 23:19:12;;;;;;;4.00;3.80;;;15.70;96.20;;;;;;10417403;28;20284;-81
2023/04/22 23:24:15;;;;;;;4.33;4.00;;;15.70;96.20;;;;;;10401314;28;20199;-81
2023/04/22 23:29:19;;;;;;;9.20;4.50;;;15.60;96.30;;;;;;10418297;28;20564;-81
2023/04/22 23:34:22;;;;;;;4.13;3.73;;;15.60;96.00;;;;;;10419356;28;20206;-81
2023/04/22 23:39:24;;;;;;;4.33;3.80;;;15.60;96.00;;;;;;10418298;28;20581;-81
2023/04/22 23:44:28;;;;;;;4.90;3.70;;;15.60;95.70;;;;;;10427060;28;20191;-81
2023/04/22 23:49:30;;;;;;;3.80;3.60;;;15.60;95.50;;;;;;10405252;28;20614;-81
2023/04/22 23:54:33;;;;;;;4.80;3.70;;;15.50;96.30;;;;;;10425875;28;20191;-81
2023/04/22 23:59:39;;;;;;;4.30;3.90;;;15.60;95.70;;;;;;10425709;28;20207;-81
